LATI/TIA METAR and TAF weather

Enter ICAO airport designator
Station Type Date Time Source
LATI METAR 2018/12/10 08:50 UTC NOAA

LATI 100850Z VRB01KT CAVOK 10/05 Q1009 NOSIG


Station Type Date Time Source
LATI Decoded METAR 2018/12/10 08:50 UTC NOAA

Tirana, Albania (LATI) 41-20N 019-47E 90M
Dec 10, 2018 - 03:50 AM EST / 2018.12.10 0850 UTC
Wind: Variable at 1 MPH (1 KT):0
Visibility: greater than 7 mile(s):0
Temperature: 50 F (10 C)
Dew Point: 41 F (5 C)
Relative Humidity: 71%
Pressure (altimeter): 29.80 in. Hg (1009 hPa)
ob: LATI 100850Z VRB01KT CAVOK 10/05 Q1009 NOSIG
cycle: 9

Station Type Date Time Source
LATI TAF 2018/12/10 06:31 UTC NOAA

TAF LATI 100500Z 1006/1106 VRB04KT 9999 SCT070
TEMPO 1010/1017 32010KT FEW050 SCT120


Example: see airport list